Time;durP1;ratioP1;P1;durP2;ratioP2;P2;SDS_P1;SDS_P2;PMS_P1;PMS_P2;Temp;Humidity;BMP_temperature;BMP_pressure;BME280_temperature;BME280_humidity;BME280_pressure;Samples;Min_cycle;Max_cycle;Signal;HPM_P1;HPM_P2
2021/08/20 00:00:49;;;;;;;10.38;9.32;;;;;;;;;;1080779;47;20488;-88
2021/08/20 00:01:51;;;;;;;16.05;10.07;;;;;;;;;;1081528;54;20384;-89
2021/08/20 00:02:53;;;;;;;13.15;9.55;;;;;;;;;;1081746;39;20565;-88
2021/08/20 00:03:58;;;;;;;15.75;9.82;;;;;;;;;;1081500;47;20384;-90
2021/08/20 00:05:02;;;;;;;11.90;9.48;;;;;;;;;;1081014;47;20381;-88
2021/08/20 00:06:07;;;;;;;14.60;10.50;;;;;;;;;;1081562;54;20445;-89
2021/08/20 00:07:09;;;;;;;14.98;9.95;;;;;;;;;;1081360;54;20460;-88
2021/08/20 00:08:10;;;;;;;16.67;10.38;;;;;;;;;;1081318;54;20381;-90
2021/08/20 00:09:15;;;;;;;17.02;10.60;;;;;;;;;;1082368;47;20397;-90
2021/08/20 00:10:36;;;;;;;15.05;10.63;;;;;;;;;;1081752;47;20435;-90
2021/08/20 00:11:40;;;;;;;17.00;10.37;;;;;;;;;;1081264;54;20360;-88
2021/08/20 00:12:42;;;;;;;15.45;10.05;;;;;;;;;;1081394;54;21113;-89
2021/08/20 00:13:44;;;;;;;17.45;10.52;;;;;;;;;;1081636;47;20378;-89
2021/08/20 00:14:46;;;;;;;15.38;10.75;;;;;;;;;;1081387;47;20380;-88
2021/08/20 00:15:48;;;;;;;14.80;10.70;;;;;;;;;;1082326;39;20935;-89
2021/08/20 00:16:50;;;;;;;20.92;11.32;;;;;;;;;;1082263;39;21227;-88
2021/08/20 00:17:51;;;;;;;19.58;11.57;;;;;;;;;;1081852;47;20397;-88
2021/08/20 00:18:55;;;;;;;18.17;10.30;;;;;;;;;;1081272;54;20381;-88
2021/08/20 00:20:03;;;;;;;15.07;11.25;;;;;;;;;;1081810;47;20488;-89
2021/08/20 00:21:05;;;;;;;15.70;10.10;;;;;;;;;;1081916;54;20393;-88
2021/08/20 00:22:08;;;;;;;12.65;10.13;;;;;;;;;;1081319;47;20384;-89
2021/08/20 00:23:11;;;;;;;15.18;10.65;;;;;;;;;;1081824;54;20385;-88
2021/08/20 00:24:16;;;;;;;18.92;10.77;;;;;;;;;;1081478;54;20385;-89
2021/08/20 00:25:22;;;;;;;14.77;9.82;;;;;;;;;;1081507;54;20385;-89
2021/08/20 00:26:25;;;;;;;15.20;9.73;;;;;;;;;;1081643;54;20381;-88
2021/08/20 00:27:27;;;;;;;18.80;10.82;;;;;;;;;;1081521;47;20366;-89
2021/08/20 00:28:33;;;;;;;12.05;10.13;;;;;;;;;;1081485;39;20486;-88
2021/08/20 00:29:35;;;;;;;12.95;10.48;;;;;;;;;;1081445;54;20381;-89
2021/08/20 00:30:37;;;;;;;16.20;10.18;;;;;;;;;;1081625;47;20440;-89
2021/08/20 00:31:39;;;;;;;19.65;10.07;;;;;;;;;;1081819;46;20376;-88
2021/08/20 00:32:43;;;;;;;14.93;10.60;;;;;;;;;;1081898;51;20488;-88
2021/08/20 00:33:47;;;;;;;16.42;10.20;;;;;;;;;;1081803;39;20765;-89
2021/08/20 00:34:49;;;;;;;14.60;10.02;;;;;;;;;;1081191;54;20428;-88
2021/08/20 00:35:54;;;;;;;14.73;10.00;;;;;;;;;;1081513;47;20379;-89
2021/08/20 00:36:57;;;;;;;16.33;11.20;;;;;;;;;;1081961;47;20378;-89
2021/08/20 00:37:59;;;;;;;14.75;10.52;;;;;;;;;;1081691;47;20389;-89
2021/08/20 00:39:01;;;;;;;14.85;10.15;;;;;;;;;;1081685;54;20416;-88
2021/08/20 00:40:05;;;;;;;17.17;11.15;;;;;;;;;;1080924;47;20457;-87
2021/08/20 00:41:12;;;;;;;16.08;10.82;;;;;;;;;;1082367;39;20879;-88
2021/08/20 00:42:14;;;;;;;24.05;12.00;;;;;;;;;;1081816;47;20954;-87
2021/08/20 00:43:16;;;;;;;22.05;12.23;;;;;;;;;;1081520;54;20393;-86
2021/08/20 00:44:19;;;;;;;22.08;12.70;;;;;;;;;;1081026;54;20362;-87
2021/08/20 00:45:21;;;;;;;19.05;12.43;;;;;;;;;;1079868;54;20381;-87
2021/08/20 00:46:22;;;;;;;18.85;13.02;;;;;;;;;;1081750;54;20385;-88
2021/08/20 00:47:25;;;;;;;21.83;12.75;;;;;;;;;;1080920;54;20412;-88
2021/08/20 00:48:33;;;;;;;21.17;13.27;;;;;;;;;;1081581;47;20910;-85
2021/08/20 00:49:36;;;;;;;20.85;13.43;;;;;;;;;;1081651;54;20477;-89
2021/08/20 00:50:38;;;;;;;21.75;13.20;;;;;;;;;;1081140;54;20455;-88
2021/08/20 00:51:46;;;;;;;17.85;12.02;;;;;;;;;;1081650;54;20408;-87
2021/08/20 00:52:50;;;;;;;17.92;13.07;;;;;;;;;;1082474;39;20827;-88
2021/08/20 00:53:55;;;;;;;22.43;13.43;;;;;;;;;;1081842;54;20382;-89
2021/08/20 00:54:58;;;;;;;21.30;13.60;;;;;;;;;;1082030;47;20993;-88
2021/08/20 00:56:03;;;;;;;20.05;12.18;;;;;;;;;;1085912;47;20404;-89
2021/08/20 00:57:07;;;;;;;20.27;12.40;;;;;;;;;;1086694;39;20686;-88
2021/08/20 00:58:09;;;;;;;16.60;13.05;;;;;;;;;;1086529;54;20429;-91
2021/08/20 00:59:13;;;;;;;21.15;13.57;;;;;;;;;;1083880;54;20377;-90
2021/08/20 01:00:17;;;;;;;23.88;14.55;;;;;;;;;;1084839;54;20433;-91
2021/08/20 01:01:20;;;;;;;23.52;14.55;;;;;;;;;;1086599;51;20378;-89
2021/08/20 01:02:22;;;;;;;21.65;13.15;;;;;;;;;;1085782;54;20504;-90
2021/08/20 01:03:26;;;;;;;16.60;13.73;;;;;;;;;;1087096;54;20427;-88
2021/08/20 01:04:30;;;;;;;22.63;14.07;;;;;;;;;;1086504;54;20404;-87
2021/08/20 01:05:32;;;;;;;19.35;14.10;;;;;;;;;;1083124;54;20367;-87
2021/08/20 01:06:37;;;;;;;22.73;14.70;;;;;;;;;;1082393;47;20369;-88
2021/08/20 01:07:39;;;;;;;20.88;13.75;;;;;;;;;;1082806;54;20405;-86
2021/08/20 01:08:41;;;;;;;19.63;14.45;;;;;;;;;;1082115;47;20384;-87
2021/08/20 01:09:47;;;;;;;23.08;14.02;;;;;;;;;;1082125;47;20389;-89
2021/08/20 01:10:51;;;;;;;22.98;15.07;;;;;;;;;;1081955;47;20980;-88
2021/08/20 01:11:53;;;;;;;19.25;14.25;;;;;;;;;;1081421;47;20353;-87
2021/08/20 01:12:55;;;;;;;24.00;15.02;;;;;;;;;;1082397;39;21011;-87
2021/08/20 01:13:57;;;;;;;20.15;14.50;;;;;;;;;;1081881;54;20936;-87
2021/08/20 01:14:59;;;;;;;20.27;14.98;;;;;;;;;;1081748;47;20365;-88
2021/08/20 01:16:02;;;;;;;18.98;14.20;;;;;;;;;;1081493;54;20948;-87
2021/08/20 01:17:06;;;;;;;19.35;14.10;;;;;;;;;;1081719;39;20814;-87
2021/08/20 01:18:33;;;;;;;17.52;14.30;;;;;;;;;;1081495;47;20396;-88
2021/08/20 01:19:37;;;;;;;20.52;15.70;;;;;;;;;;1080802;47;20460;-88
2021/08/20 01:20:39;;;;;;;21.83;14.90;;;;;;;;;;1081063;47;20381;-87
2021/08/20 01:21:41;;;;;;;17.73;14.77;;;;;;;;;;1079531;54;20412;-88
2021/08/20 01:22:42;;;;;;;18.38;14.93;;;;;;;;;;1081087;39;20770;-88
2021/08/20 01:23:50;;;;;;;17.55;14.23;;;;;;;;;;1080749;47;20484;-89
2021/08/20 01:25:10;;;;;;;18.27;14.88;;;;;;;;;;1080499;47;20484;-88
2021/08/20 01:26:13;;;;;;;21.05;14.80;;;;;;;;;;1080984;54;20473;-87
2021/08/20 01:27:18;;;;;;;22.63;16.38;;;;;;;;;;1081455;47;20480;-87
2021/08/20 01:28:21;;;;;;;25.17;15.70;;;;;;;;;;1081507;47;20433;-88
2021/08/20 01:29:23;;;;;;;18.25;14.45;;;;;;;;;;1081664;54;20952;-88
2021/08/20 01:30:25;;;;;;;28.67;15.98;;;;;;;;;;1081159;47;20375;-88
2021/08/20 01:31:29;;;;;;;23.73;16.65;;;;;;;;;;1081376;47;20407;-87
2021/08/20 01:32:30;;;;;;;18.92;15.77;;;;;;;;;;1081637;54;20400;-88
2021/08/20 01:33:32;;;;;;;24.83;16.02;;;;;;;;;;1081544;47;20373;-88
2021/08/20 01:34:34;;;;;;;24.30;14.85;;;;;;;;;;1081369;47;20361;-90
2021/08/20 01:35:36;;;;;;;21.23;15.27;;;;;;;;;;1081498;47;20353;-89
2021/08/20 01:36:38;;;;;;;20.25;15.88;;;;;;;;;;1081562;54;20372;-89
2021/08/20 01:37:40;;;;;;;22.15;16.33;;;;;;;;;;1081772;54;20459;-90
2021/08/20 01:38:52;;;;;;;24.65;16.75;;;;;;;;;;1081621;54;20372;-88
2021/08/20 01:39:54;;;;;;;21.30;16.17;;;;;;;;;;1082461;39;20510;-88
2021/08/20 01:40:56;;;;;;;21.77;16.75;;;;;;;;;;1082431;39;20572;-88
2021/08/20 01:41:58;;;;;;;24.50;15.90;;;;;;;;;;1082021;47;21560;-88
2021/08/20 01:43:01;;;;;;;18.27;16.10;;;;;;;;;;1083303;47;20393;-88
2021/08/20 01:44:03;;;;;;;20.83;15.30;;;;;;;;;;1083680;47;20357;-90
2021/08/20 01:45:09;;;;;;;21.35;15.38;;;;;;;;;;1081931;47;20396;-89
2021/08/20 01:46:13;;;;;;;27.35;16.38;;;;;;;;;;1082263;54;20400;-90
2021/08/20 01:47:15;;;;;;;25.02;16.30;;;;;;;;;;1082079;31;20850;-88
2021/08/20 01:48:23;;;;;;;22.75;15.75;;;;;;;;;;1082108;54;20364;-88
2021/08/20 01:49:25;;;;;;;22.52;15.00;;;;;;;;;;1082427;47;20468;-87
2021/08/20 01:50:27;;;;;;;21.90;14.23;;;;;;;;;;1081853;47;20373;-88
2021/08/20 01:51:31;;;;;;;18.55;14.35;;;;;;;;;;1082316;47;20361;-87
2021/08/20 01:52:33;;;;;;;21.98;15.85;;;;;;;;;;1082046;54;20392;-88
2021/08/20 01:53:35;;;;;;;24.40;15.45;;;;;;;;;;1082258;47;20401;-88
2021/08/20 01:54:38;;;;;;;23.65;15.60;;;;;;;;;;1082711;39;20888;-88
2021/08/20 01:55:41;;;;;;;19.33;14.73;;;;;;;;;;1082659;54;20404;-88
2021/08/20 01:57:10;;;;;;;26.58;15.45;;;;;;;;;;1084562;54;20469;-87
2021/08/20 01:58:18;;;;;;;25.38;15.80;;;;;;;;;;1082874;54;20408;-88
2021/08/20 01:59:22;;;;;;;20.27;14.93;;;;;;;;;;1083234;47;20469;-87
2021/08/20 02:00:23;;;;;;;20.00;15.13;;;;;;;;;;1082657;47;20376;-88
2021/08/20 02:01:27;;;;;;;25.90;15.07;;;;;;;;;;1084174;54;20370;-88
2021/08/20 02:02:32;;;;;;;19.70;13.82;;;;;;;;;;1085439;47;20385;-88
2021/08/20 02:03:34;;;;;;;24.80;14.88;;;;;;;;;;1086733;47;20357;-89
2021/08/20 02:04:36;;;;;;;25.65;14.85;;;;;;;;;;1087115;54;20372;-89
2021/08/20 02:05:38;;;;;;;24.90;14.60;;;;;;;;;;1087205;47;20433;-91
2021/08/20 02:06:40;;;;;;;24.67;14.55;;;;;;;;;;1080901;47;20366;-91
2021/08/20 02:07:42;;;;;;;21.25;14.00;;;;;;;;;;1087452;47;20373;-89
2021/08/20 02:08:44;;;;;;;22.52;14.85;;;;;;;;;;1087292;47;20364;-88
2021/08/20 02:09:47;;;;;;;24.80;14.20;;;;;;;;;;1087847;54;20378;-89
2021/08/20 02:10:49;;;;;;;24.58;14.73;;;;;;;;;;1087878;54;20369;-88
2021/08/20 02:11:52;;;;;;;24.83;15.05;;;;;;;;;;1087839;54;20405;-88
2021/08/20 02:12:55;;;;;;;23.08;14.27;;;;;;;;;;1087670;47;20429;-88
2021/08/20 02:13:58;;;;;;;23.63;15.30;;;;;;;;;;1087143;54;20394;-88
2021/08/20 02:15:04;;;;;;;21.95;14.45;;;;;;;;;;1086818;47;20944;-87
2021/08/20 02:16:10;;;;;;;24.05;14.98;;;;;;;;;;1086884;54;20438;-86
2021/08/20 02:17:12;;;;;;;26.40;15.15;;;;;;;;;;1087822;54;20377;-87
2021/08/20 02:18:14;;;;;;;23.10;15.00;;;;;;;;;;1087673;47;20334;-87
2021/08/20 02:19:19;;;;;;;25.85;15.68;;;;;;;;;;1086632;54;20370;-87
2021/08/20 02:20:21;;;;;;;26.33;16.83;;;;;;;;;;1086048;54;20885;-87
2021/08/20 02:21:23;;;;;;;25.92;15.80;;;;;;;;;;1084521;47;20448;-88
2021/08/20 02:22:25;;;;;;;25.80;16.70;;;;;;;;;;1084370;54;20978;-87
2021/08/20 02:23:27;;;;;;;30.73;16.73;;;;;;;;;;1083306;54;20472;-87
2021/08/20 02:24:29;;;;;;;23.20;15.40;;;;;;;;;;1083109;47;20384;-88
2021/08/20 02:25:31;;;;;;;30.42;17.02;;;;;;;;;;1082581;54;20936;-88
2021/08/20 02:26:33;;;;;;;27.92;15.93;;;;;;;;;;1082170;47;20494;-89
2021/08/20 02:27:34;;;;;;;28.95;17.08;;;;;;;;;;1082259;47;20369;-87
2021/08/20 02:28:36;;;;;;;25.10;17.08;;;;;;;;;;1082083;54;20385;-88
2021/08/20 02:29:38;;;;;;;24.83;16.67;;;;;;;;;;1082632;54;20472;-88
2021/08/20 02:30:40;;;;;;;27.15;18.25;;;;;;;;;;1081881;47;20400;-91
2021/08/20 02:31:42;;;;;;;29.88;17.77;;;;;;;;;;1081719;54;20377;-88
2021/08/20 02:32:44;;;;;;;30.33;17.65;;;;;;;;;;1081829;47;20369;-88
2021/08/20 02:33:55;;;;;;;27.80;17.63;;;;;;;;;;1081950;47;20357;-88
2021/08/20 02:34:57;;;;;;;26.58;17.73;;;;;;;;;;1081848;54;20403;-89
2021/08/20 02:36:02;;;;;;;27.63;17.02;;;;;;;;;;1081937;54;20361;-89
2021/08/20 02:37:04;;;;;;;29.98;17.17;;;;;;;;;;1081470;46;20507;-88
2021/08/20 02:38:11;;;;;;;27.15;18.52;;;;;;;;;;1083040;47;20408;-88
2021/08/20 02:39:15;;;;;;;27.88;18.13;;;;;;;;;;1081664;54;20403;-88
2021/08/20 02:40:19;;;;;;;31.17;19.17;;;;;;;;;;1081828;46;20365;-88
2021/08/20 02:41:21;;;;;;;29.77;19.00;;;;;;;;;;1082031;47;20476;-89
2021/08/20 02:42:22;;;;;;;28.67;18.83;;;;;;;;;;1081198;54;20408;-88
2021/08/20 02:43:25;;;;;;;28.73;18.38;;;;;;;;;;1081767;47;20369;-90
2021/08/20 02:44:28;;;;;;;28.30;19.27;;;;;;;;;;1081738;47;20527;-89
2021/08/20 02:45:30;;;;;;;29.08;18.70;;;;;;;;;;1081375;54;20448;-88
2021/08/20 02:46:32;;;;;;;30.92;18.30;;;;;;;;;;1081510;54;21377;-89
2021/08/20 02:47:34;;;;;;;31.80;18.70;;;;;;;;;;1081400;54;20441;-89
2021/08/20 02:48:36;;;;;;;30.92;19.13;;;;;;;;;;1081916;54;20378;-89
2021/08/20 02:49:39;;;;;;;26.75;19.08;;;;;;;;;;1081667;54;20399;-89
2021/08/20 02:50:45;;;;;;;28.73;19.25;;;;;;;;;;1081376;47;20368;-89
2021/08/20 02:51:49;;;;;;;32.75;19.30;;;;;;;;;;1081789;47;20405;-88
2021/08/20 02:52:52;;;;;;;26.80;18.38;;;;;;;;;;1080727;54;20370;-89
2021/08/20 02:53:55;;;;;;;29.33;18.67;;;;;;;;;;1081964;47;20409;-88
2021/08/20 02:54:57;;;;;;;30.20;19.40;;;;;;;;;;1081468;47;20393;-88
2021/08/20 02:55:59;;;;;;;30.25;19.75;;;;;;;;;;1081821;54;20917;-88
2021/08/20 02:57:02;;;;;;;31.02;19.00;;;;;;;;;;1081462;47;20449;-88
2021/08/20 02:58:05;;;;;;;32.65;20.48;;;;;;;;;;1081636;54;20384;-88
2021/08/20 02:59:07;;;;;;;30.80;19.90;;;;;;;;;;1081887;54;20469;-88
2021/08/20 03:00:09;;;;;;;32.38;20.50;;;;;;;;;;1082033;54;20381;-87
2021/08/20 03:01:13;;;;;;;32.78;20.10;;;;;;;;;;1081860;54;20485;-88
2021/08/20 03:02:15;;;;;;;30.17;19.33;;;;;;;;;;1082024;54;21028;-89
2021/08/20 03:03:23;;;;;;;30.42;19.27;;;;;;;;;;1081364;47;20452;-89
2021/08/20 03:04:26;;;;;;;27.10;19.50;;;;;;;;;;1081956;39;20711;-88
2021/08/20 03:05:28;;;;;;;29.15;19.50;;;;;;;;;;1081680;47;20384;-89
2021/08/20 03:06:34;;;;;;;28.23;18.80;;;;;;;;;;1081560;46;20381;-89
2021/08/20 03:07:37;;;;;;;29.17;19.35;;;;;;;;;;1081360;46;20461;-89
2021/08/20 03:08:40;;;;;;;26.75;18.67;;;;;;;;;;1082126;47;21035;-91
2021/08/20 03:09:42;;;;;;;28.20;19.20;;;;;;;;;;1082036;54;20362;-89
2021/08/20 03:10:45;;;;;;;29.95;19.33;;;;;;;;;;1082554;47;20488;-89
2021/08/20 03:11:48;;;;;;;28.05;19.95;;;;;;;;;;1082924;46;20384;-89
2021/08/20 03:12:51;;;;;;;31.58;19.98;;;;;;;;;;1082086;47;20368;-89
2021/08/20 03:13:55;;;;;;;31.40;18.57;;;;;;;;;;1081308;54;20582;-88
2021/08/20 03:14:58;;;;;;;29.85;19.08;;;;;;;;;;1081114;54;20480;-89
2021/08/20 03:16:01;;;;;;;33.88;19.33;;;;;;;;;;1081745;47;20381;-89
2021/08/20 03:17:03;;;;;;;30.02;19.70;;;;;;;;;;1081773;47;20400;-90
2021/08/20 03:18:05;;;;;;;35.17;20.02;;;;;;;;;;1082073;54;20384;-88
2021/08/20 03:19:09;;;;;;;29.60;19.02;;;;;;;;;;1081461;54;20389;-89
2021/08/20 03:20:12;;;;;;;28.60;19.38;;;;;;;;;;1081412;54;20385;-88
2021/08/20 03:21:20;;;;;;;29.27;19.17;;;;;;;;;;1082449;54;20373;-88
2021/08/20 03:22:22;;;;;;;33.83;19.45;;;;;;;;;;1082372;47;20526;-89
2021/08/20 03:23:24;;;;;;;33.80;19.55;;;;;;;;;;1081741;46;20373;-88
2021/08/20 03:24:26;;;;;;;32.60;19.73;;;;;;;;;;1081590;54;21008;-88
2021/08/20 03:25:28;;;;;;;27.42;18.33;;;;;;;;;;1081560;47;20385;-87
2021/08/20 03:26:30;;;;;;;35.63;19.83;;;;;;;;;;1081791;54;20405;-87
2021/08/20 03:27:32;;;;;;;31.73;19.20;;;;;;;;;;1082569;47;20386;-86
2021/08/20 03:28:35;;;;;;;30.10;17.95;;;;;;;;;;1085551;54;20373;-89
2021/08/20 03:29:37;;;;;;;33.38;18.88;;;;;;;;;;1086192;47;20392;-89
2021/08/20 03:30:39;;;;;;;29.90;18.25;;;;;;;;;;1086696;54;20373;-90
2021/08/20 03:31:41;;;;;;;32.78;18.48;;;;;;;;;;1087028;51;20412;-91
2021/08/20 03:32:42;;;;;;;34.03;18.65;;;;;;;;;;1087081;47;20421;-90
2021/08/20 03:33:44;;;;;;;30.02;18.70;;;;;;;;;;1087504;54;20438;-90
2021/08/20 03:34:46;;;;;;;32.47;19.17;;;;;;;;;;1087754;54;20453;-89
2021/08/20 03:35:48;;;;;;;32.42;17.73;;;;;;;;;;1087804;47;20397;-89
2021/08/20 03:36:59;;;;;;;28.60;18.05;;;;;;;;;;1086734;47;20353;-88
2021/08/20 03:38:03;;;;;;;34.20;18.70;;;;;;;;;;1082997;47;20369;-87
2021/08/20 03:39:06;;;;;;;30.65;17.88;;;;;;;;;;1082808;54;20380;-88
2021/08/20 03:40:09;;;;;;;33.50;17.50;;;;;;;;;;1081851;54;20384;-88
2021/08/20 03:41:30;;;;;;;31.40;17.15;;;;;;;;;;1081686;47;20377;-88
2021/08/20 03:42:36;;;;;;;30.25;16.60;;;;;;;;;;1081824;47;20485;-89
2021/08/20 03:43:38;;;;;;;24.60;14.60;;;;;;;;;;1082414;54;20404;-88
2021/08/20 03:44:42;;;;;;;31.15;15.75;;;;;;;;;;1082683;39;20822;-89
2021/08/20 03:45:44;;;;;;;29.27;16.75;;;;;;;;;;1081968;54;20437;-87
2021/08/20 03:46:47;;;;;;;32.83;15.95;;;;;;;;;;1082030;54;20369;-88
2021/08/20 03:47:54;;;;;;;29.80;16.42;;;;;;;;;;1081799;47;20381;-88
2021/08/20 03:49:03;;;;;;;26.10;15.85;;;;;;;;;;1082251;54;21196;-89
2021/08/20 03:50:13;;;;;;;28.95;15.00;;;;;;;;;;1082516;47;20377;-88
2021/08/20 03:51:20;;;;;;;27.52;14.88;;;;;;;;;;1082668;39;20777;-89
2021/08/20 03:52:27;;;;;;;27.88;15.27;;;;;;;;;;1082087;54;20497;-89
2021/08/20 03:53:33;;;;;;;31.92;15.77;;;;;;;;;;1081937;46;20376;-89
2021/08/20 03:54:35;;;;;;;27.33;16.33;;;;;;;;;;1081213;47;20371;-89
2021/08/20 03:55:37;;;;;;;36.50;15.93;;;;;;;;;;1081354;54;20369;-90
2021/08/20 03:56:45;;;;;;;26.92;14.60;;;;;;;;;;1081555;47;20413;-89
2021/08/20 03:57:49;;;;;;;23.35;14.32;;;;;;;;;;1081791;47;20365;-88
2021/08/20 03:58:53;;;;;;;25.95;15.13;;;;;;;;;;1081682;54;20529;-89
2021/08/20 04:00:01;;;;;;;25.50;15.15;;;;;;;;;;1081983;54;20369;-87
2021/08/20 04:01:08;;;;;;;31.08;15.05;;;;;;;;;;1081958;54;20365;-87
2021/08/20 04:02:10;;;;;;;25.33;13.53;;;;;;;;;;1082461;39;20771;-88
2021/08/20 04:03:13;;;;;;;23.15;13.63;;;;;;;;;;1081591;54;20370;-88
2021/08/20 04:04:15;;;;;;;26.20;14.77;;;;;;;;;;1081641;47;20404;-87
2021/08/20 04:05:22;;;;;;;24.23;14.48;;;;;;;;;;1081606;54;20370;-87
2021/08/20 04:06:24;;;;;;;25.08;13.77;;;;;;;;;;1081537;47;20371;-88
2021/08/20 04:07:28;;;;;;;27.88;14.27;;;;;;;;;;1081720;47;20373;-88
2021/08/20 04:08:32;;;;;;;22.75;12.90;;;;;;;;;;1081548;47;20363;-88
2021/08/20 04:09:34;;;;;;;22.08;12.73;;;;;;;;;;1081754;54;20382;-87
2021/08/20 04:10:39;;;;;;;26.98;13.98;;;;;;;;;;1081746;54;20365;-89
2021/08/20 04:11:41;;;;;;;27.50;13.38;;;;;;;;;;1081870;54;20452;-89
2021/08/20 04:12:43;;;;;;;25.42;13.20;;;;;;;;;;1081098;46;20376;-86
2021/08/20 04:13:48;;;;;;;29.20;13.63;;;;;;;;;;1081745;54;20968;-88
2021/08/20 04:14:49;;;;;;;22.92;13.77;;;;;;;;;;1081620;47;20385;-87
2021/08/20 04:15:53;;;;;;;21.75;12.75;;;;;;;;;;1081636;54;20424;-89
2021/08/20 04:16:55;;;;;;;25.42;13.27;;;;;;;;;;1081779;47;20457;-89
2021/08/20 04:17:57;;;;;;;23.52;12.77;;;;;;;;;;1081864;54;21162;-89
2021/08/20 04:18:59;;;;;;;23.38;13.10;;;;;;;;;;1082421;54;20492;-90
2021/08/20 04:20:01;;;;;;;22.85;13.05;;;;;;;;;;1082966;54;20365;-87
2021/08/20 04:21:04;;;;;;;23.40;13.10;;;;;;;;;;1082902;47;20404;-88
2021/08/20 04:22:12;;;;;;;22.45;12.30;;;;;;;;;;1082717;48;20369;-89
2021/08/20 04:23:15;;;;;;;22.42;12.80;;;;;;;;;;1082585;47;20389;-87
2021/08/20 04:24:18;;;;;;;20.73;12.20;;;;;;;;;;1082473;47;20372;-88
2021/08/20 04:25:20;;;;;;;20.90;12.18;;;;;;;;;;1083347;39;20424;-87
2021/08/20 04:26:24;;;;;;;19.60;11.55;;;;;;;;;;1082960;54;20506;-89
2021/08/20 04:27:26;;;;;;;20.42;12.10;;;;;;;;;;1085254;54;20453;-88
2021/08/20 04:28:29;;;;;;;19.33;11.23;;;;;;;;;;1085847;47;20409;-89
2021/08/20 04:29:32;;;;;;;16.73;10.52;;;;;;;;;;1085528;54;20373;-89
2021/08/20 04:30:36;;;;;;;24.77;11.80;;;;;;;;;;1085745;47;20364;-88
2021/08/20 04:31:44;;;;;;;21.73;11.63;;;;;;;;;;1085583;54;20389;-90
2021/08/20 04:32:47;;;;;;;19.55;11.13;;;;;;;;;;1084791;54;20388;-87
2021/08/20 04:33:50;;;;;;;21.85;11.40;;;;;;;;;;1085571;46;20357;-88
2021/08/20 04:34:52;;;;;;;18.88;10.48;;;;;;;;;;1085347;47;20389;-89
2021/08/20 04:35:55;;;;;;;17.20;10.52;;;;;;;;;;1085571;54;20377;-88
2021/08/20 04:36:59;;;;;;;21.98;10.07;;;;;;;;;;1085284;54;20358;-88
2021/08/20 04:38:01;;;;;;;19.45;10.48;;;;;;;;;;1084895;47;20393;-88
2021/08/20 04:39:04;;;;;;;21.40;11.07;;;;;;;;;;1086690;47;20474;-87
2021/08/20 04:40:13;;;;;;;16.33;9.65;;;;;;;;;;1086348;39;21114;-88
2021/08/20 04:41:15;;;;;;;16.60;8.95;;;;;;;;;;1086382;54;20365;-88
2021/08/20 04:42:18;;;;;;;16.17;8.97;;;;;;;;;;1086652;47;20456;-87
2021/08/20 04:43:26;;;;;;;17.90;8.70;;;;;;;;;;1086119;54;20345;-88
2021/08/20 04:44:28;;;;;;;15.93;8.57;;;;;;;;;;1087564;47;20389;-89
2021/08/20 04:45:34;;;;;;;14.65;7.65;;;;;;;;;;1087836;54;20360;-89
2021/08/20 04:46:39;;;;;;;12.35;7.22;;;;;;;;;;1087145;47;20389;-89
2021/08/20 04:47:47;;;;;;;16.02;7.68;;;;;;;;;;1085970;54;20370;-90
2021/08/20 04:48:49;;;;;;;15.70;7.53;;;;;;;;;;1086030;47;20379;-89
2021/08/20 04:49:51;;;;;;;15.85;7.45;;;;;;;;;;1087734;47;20350;-89
2021/08/20 04:50:57;;;;;;;14.30;7.07;;;;;;;;;;1087729;47;20477;-89
2021/08/20 04:51:59;;;;;;;11.60;6.10;;;;;;;;;;1087613;47;20358;-90
2021/08/20 04:53:02;;;;;;;8.65;6.05;;;;;;;;;;1087874;47;20393;-89
2021/08/20 04:54:09;;;;;;;14.30;6.03;;;;;;;;;;1087785;47;20349;-88
2021/08/20 04:55:11;;;;;;;9.48;6.22;;;;;;;;;;1088020;46;20384;-89
2021/08/20 04:56:20;;;;;;;10.02;5.95;;;;;;;;;;1088080;54;20413;-89
2021/08/20 04:57:22;;;;;;;9.48;5.88;;;;;;;;;;1088242;47;20357;-89
2021/08/20 04:58:25;;;;;;;14.13;6.63;;;;;;;;;;1087596;54;20447;-88
2021/08/20 04:59:28;;;;;;;11.10;4.78;;;;;;;;;;1086583;54;20377;-88
2021/08/20 05:00:33;;;;;;;11.13;4.65;;;;;;;;;;1086382;47;20380;-88
2021/08/20 05:01:42;;;;;;;11.40;4.47;;;;;;;;;;1085908;54;20369;-87
2021/08/20 05:02:44;;;;;;;11.10;4.90;;;;;;;;;;1086731;47;20397;-86
2021/08/20 05:03:48;;;;;;;11.93;5.35;;;;;;;;;;1086914;54;20400;-88
2021/08/20 05:04:50;;;;;;;13.43;4.70;;;;;;;;;;1087437;47;20366;-88
2021/08/20 05:05:52;;;;;;;9.63;4.28;;;;;;;;;;1086181;47;20408;-88
2021/08/20 05:06:54;;;;;;;10.80;5.30;;;;;;;;;;1086731;47;20494;-90
2021/08/20 05:07:56;;;;;;;8.18;4.13;;;;;;;;;;1085737;47;20370;-88
2021/08/20 05:08:58;;;;;;;7.88;3.63;;;;;;;;;;1083420;54;20368;-88
2021/08/20 05:10:04;;;;;;;10.60;3.65;;;;;;;;;;1082973;47;20481;-89
2021/08/20 05:11:06;;;;;;;9.10;4.03;;;;;;;;;;1082710;54;20401;-88
2021/08/20 05:12:09;;;;;;;10.55;3.90;;;;;;;;;;1082254;54;20397;-89
2021/08/20 05:13:11;;;;;;;8.20;4.13;;;;;;;;;;1082120;47;20373;-88
2021/08/20 05:14:13;;;;;;;10.52;4.90;;;;;;;;;;1081967;54;20389;-89
2021/08/20 05:15:17;;;;;;;7.68;4.47;;;;;;;;;;1081851;54;20435;-89
2021/08/20 05:16:19;;;;;;;9.57;3.72;;;;;;;;;;1082027;54;20411;-88
2021/08/20 05:17:23;;;;;;;11.57;4.20;;;;;;;;;;1082264;39;20836;-89
2021/08/20 05:18:25;;;;;;;10.90;4.03;;;;;;;;;;1081414;54;20373;-88
2021/08/20 05:19:27;;;;;;;10.17;4.00;;;;;;;;;;1081343;54;20545;-89
2021/08/20 05:20:36;;;;;;;8.13;4.53;;;;;;;;;;1082591;39;20860;-89
2021/08/20 05:21:49;;;;;;;10.50;3.67;;;;;;;;;;1081683;54;20420;-90
2021/08/20 05:22:53;;;;;;;8.90;4.18;;;;;;;;;;1081598;54;20409;-89
2021/08/20 05:23:56;;;;;;;10.60;4.72;;;;;;;;;;1081916;46;20354;-89
2021/08/20 05:25:02;;;;;;;7.28;4.60;;;;;;;;;;1081620;47;20373;-90
2021/08/20 05:26:04;;;;;;;8.07;4.75;;;;;;;;;;1081375;47;20932;-88
2021/08/20 05:27:06;;;;;;;10.73;5.18;;;;;;;;;;1081786;47;20373;-89
2021/08/20 05:28:09;;;;;;;11.07;4.55;;;;;;;;;;1081512;54;20500;-89
2021/08/20 05:29:11;;;;;;;15.60;4.70;;;;;;;;;;1082509;39;20703;-89
2021/08/20 05:30:14;;;;;;;11.00;4.38;;;;;;;;;;1081129;54;20971;-89
2021/08/20 05:31:22;;;;;;;13.65;4.55;;;;;;;;;;1081363;54;20975;-90
2021/08/20 05:32:24;;;;;;;12.18;3.75;;;;;;;;;;1082004;47;20361;-89
2021/08/20 05:33:30;;;;;;;8.20;4.18;;;;;;;;;;1081666;54;20396;-89
2021/08/20 05:34:32;;;;;;;10.82;4.25;;;;;;;;;;1083115;39;20682;-89
2021/08/20 05:35:41;;;;;;;7.03;3.50;;;;;;;;;;1081689;47;20400;-90
2021/08/20 05:36:43;;;;;;;10.13;3.95;;;;;;;;;;1081361;54;20385;-87
2021/08/20 05:37:45;;;;;;;6.95;3.55;;;;;;;;;;1081682;47;20465;-88
2021/08/20 05:38:51;;;;;;;7.80;3.22;;;;;;;;;;1081659;54;20369;-89
2021/08/20 05:39:56;;;;;;;10.02;4.22;;;;;;;;;;1081422;47;20531;-88
2021/08/20 05:40:57;;;;;;;9.80;4.47;;;;;;;;;;1081556;47;20493;-91
2021/08/20 05:41:59;;;;;;;10.98;4.20;;;;;;;;;;1081449;54;20388;-89
2021/08/20 05:43:03;;;;;;;8.55;3.67;;;;;;;;;;1081632;54;20380;-88
2021/08/20 05:44:11;;;;;;;15.32;4.07;;;;;;;;;;1082269;39;20763;-89
2021/08/20 05:45:37;;;;;;;7.07;2.80;;;;;;;;;;1082632;31;20873;-90
2021/08/20 05:46:40;;;;;;;11.80;2.95;;;;;;;;;;1080880;47;20488;-89
2021/08/20 05:47:44;;;;;;;7.30;3.15;;;;;;;;;;1081356;51;20369;-89
2021/08/20 05:48:54;;;;;;;11.13;3.75;;;;;;;;;;1081314;54;20377;-88
2021/08/20 05:49:56;;;;;;;7.38;3.35;;;;;;;;;;1081636;47;20393;-88
2021/08/20 05:51:01;;;;;;;10.38;3.40;;;;;;;;;;1080747;47;20368;-89
2021/08/20 05:52:03;;;;;;;12.77;3.30;;;;;;;;;;1081199;47;20361;-90
2021/08/20 05:53:05;;;;;;;7.28;3.30;;;;;;;;;;1081678;54;20353;-88
2021/08/20 05:54:09;;;;;;;8.03;3.80;;;;;;;;;;1081494;47;20361;-89
2021/08/20 05:55:12;;;;;;;10.20;4.32;;;;;;;;;;1081520;54;20468;-89
2021/08/20 05:56:21;;;;;;;8.53;3.90;;;;;;;;;;1081082;47;20984;-89
2021/08/20 05:57:24;;;;;;;8.95;3.92;;;;;;;;;;1081906;47;20361;-89
2021/08/20 05:58:30;;;;;;;9.38;4.32;;;;;;;;;;1082293;54;20427;-90
2021/08/20 05:59:32;;;;;;;8.38;4.20;;;;;;;;;;1083057;31;20944;-90
2021/08/20 06:00:34;;;;;;;8.20;4.43;;;;;;;;;;1084328;46;20392;-90
2021/08/20 06:01:37;;;;;;;11.32;4.15;;;;;;;;;;1086312;54;20404;-90
2021/08/20 06:02:41;;;;;;;7.88;4.90;;;;;;;;;;1086338;54;20817;-91
2021/08/20 06:03:43;;;;;;;7.70;5.03;;;;;;;;;;1086901;47;20477;-90
2021/08/20 06:04:45;;;;;;;11.07;5.22;;;;;;;;;;1087359;47;20374;-90
2021/08/20 06:05:47;;;;;;;13.18;5.75;;;;;;;;;;1087702;47;20415;-90
2021/08/20 06:06:50;;;;;;;11.00;5.90;;;;;;;;;;1087602;54;20384;-90
2021/08/20 06:07:52;;;;;;;12.52;5.63;;;;;;;;;;1087958;54;20425;-92
2021/08/20 06:08:53;;;;;;;10.88;6.10;;;;;;;;;;1087980;54;20365;-89
2021/08/20 06:09:55;;;;;;;12.82;5.57;;;;;;;;;;1084605;54;20392;-88
2021/08/20 06:10:57;;;;;;;10.70;6.38;;;;;;;;;;1083189;47;20476;-88
2021/08/20 06:12:00;;;;;;;11.48;6.05;;;;;;;;;;1082260;47;20397;-90
2021/08/20 06:13:03;;;;;;;11.90;7.70;;;;;;;;;;1082307;47;20391;-89